This is the latest recevied weather packets stored in our database for station/object AE2A-13. If no packets are shown the sender has not sent any weather packets the latest 10 day(s).
| Time | Temp. | Humidity | Pressure | Rain* | Wind** | Luminosity | Snow |
|---|---|---|---|---|---|---|---|
| 1777920304 | 25.56° C | 64% | 1017.4 hPa | 0 mm | - | - | - |
| 1777918504 | 26.11° C | 62% | 1017.7 hPa | 0 mm | - | - | - |
| 1777917304 | 26.11° C | 62% | 1017.7 hPa | 0 mm | - | - | - |
| 1777916704 | 26.11° C | 62% | 1017.8 hPa | 0 mm | - | - | - |
| 1777914303 | 26.11° C | 62% | 1018 hPa | 0 mm | - | - | - |
| 1777913703 | 26.11° C | 62% | 1017.9 hPa | 0 mm | - | - | - |
| 1777911603 | 26.67° C | 61% | 1018.2 hPa | 0 mm | - | - | - |
| 1777908604 | 25° C | 63% | 1018.7 hPa | 0 mm | - | - | - |
| 1777907404 | 25° C | 65% | 1018.8 hPa | 0 mm | - | - | - |
| 1777906204 | 24.44° C | 66% | 1018.9 hPa | 0 mm | - | - | - |
| 1777905304 | 23.89° C | 66% | 1018.8 hPa | 0 mm | - | - | - |
| 1777904104 | 24.44° C | 68% | 1018.3 hPa | 0 mm | - | - | - |
| 1777901404 | 23.33° C | 70% | 1018.4 hPa | 0 mm | - | - | - |
| 1777900803 | 23.33° C | 72% | 1018.3 hPa | 0 mm | - | - | - |
| 1777899604 | 22.22° C | 75% | 1018 hPa | 0 mm | - | - | - |
| 1777897504 | 21.11° C | 79% | 1017.8 hPa | 0 mm | - | - | - |
| 1777889103 | 17.22° C | 90% | 1016.6 hPa | 0 mm | - | - | - |
| 1777888205 | 17.22° C | 90% | 1016.8 hPa | 0 mm | - | - | - |
| 1777886704 | 17.78° C | 89% | 1016.8 hPa | 0 mm | - | - | - |
| 1777884903 | 17.78° C | 89% | 1016.5 hPa | 0 mm | - | - | - |
| 1777883404 | 18.33° C | 88% | 1016.5 hPa | 0 mm | - | - | - |
| 1777882503 | 18.33° C | 88% | 1016.7 hPa | 0 mm | - | - | - |
| 1777881904 | 18.89° C | 88% | 1016.8 hPa | 0 mm | - | - | - |
| 1777881604 | 18.89° C | 87% | 1016.9 hPa | 0 mm | - | - | - |
| 1777880104 | 18.89° C | 87% | 1016.6 hPa | 0 mm | - | - | - |
* Rain latest hour (hover to see other rain measurements)
** Current wind speed in m/s (hover to see current wind gust speed)